FW5754 Weather Reports


Display with metric or nautical units.
time (UTC)temp
F
wind
direction
speed
MPH
gust
MPH
rain 1hr
in
rain 24hr
in
rain mn
in
humidity
%
barometer
mb
20200403085008 43 332 22.0 28.0 0.02 0.07 0.06 86 999.1
20200403084533 43 320 23.0 28.0 0.02 0.07 0.06 86 999.0
20200403084007 43 336 21.0 27.0 0.02 0.07 0.06 86 999.0
20200403083509 43 333 23.0 27.0 0.02 0.07 0.06 86 999.0
20200403083037 43 340 21.0 28.0 0.01 0.06 0.05 86 999.1
20200403082057 43 344 23.0 28.0 0.01 0.06 0.05 85 999.1
20200403081654 43 338 22.0 28.0 0.01 0.06 0.05 85 999.1
20200403081053 43 334 23.0 28.0 0.01 0.06 0.05 85 998.9
20200403080550 43 320 21.0 26.0 0.01 0.06 0.05 86 999.0
20200403080207 43 345 20.0 26.0 0.00 0.05 0.04 86 999.0
20200403075550 43 338 21.0 26.0 0.00 0.05 0.04 85 999.0
20200403075106 43 329 21.0 27.0 0.00 0.05 0.04 85 999.1
20200403074631 43 337 21.0 27.0 0.00 0.05 0.04 85 999.1
20200403074048 43 340 22.0 27.0 0.00 0.05 0.04 85 999.2
20200403073547 43 336 22.0 29.0 0.01 0.05 0.04 85 999.2
20200403073133 43 327 23.0 29.0 0.01 0.05 0.04 85 999.2
20200403072054 43 329 23.0 29.0 0.01 0.05 0.04 85 999.2
20200403071621 43 333 24.0 30.0 0.01 0.05 0.04 85 999.2
20200403071054 43 335 22.0 30.0 0.01 0.05 0.04 85 999.3
20200403070557 43 336 22.0 27.0 0.01 0.05 0.04 84 999.2
20200403070321 43 343 21.0 29.0 0.01 0.05 0.04 84 999.4
20200403065601 43 333 24.0 29.0 0.01 0.05 0.04 84 999.4
20200403065120 43 342 24.0 29.0 0.01 0.05 0.04 85 999.4
20200403064615 43 330 23.0 27.0 0.01 0.05 0.04 85 999.4
20200403064058 43 327 23.0 29.0 0.01 0.05 0.04 85 999.5
20200403063549 43 339 24.0 29.0 0.01 0.05 0.04 85 999.5
20200403063116 43 333 25.0 31.0 0.00 0.04 0.03 85 999.5
20200403062039 43 342 23.0 28.0 0.00 0.04 0.03 85 999.7
20200403061702 43 342 23.0 31.0 0.00 0.04 0.03 84 999.7
20200403061031 43 344 25.0 31.0 0.00 0.04 0.03 84 999.7
20200403060536 43 341 24.0 31.0 0.00 0.04 0.03 84 999.8
20200403060101 43 347 23.0 32.0 0.00 0.04 0.03 84 999.9
20200403055531 43 332 25.0 29.0 0.00 0.04 0.03 84 999.8
20200403055027 43 334 23.0 32.0 0.01 0.04 0.03 85 999.9
20200403054550 43 342 24.0 32.0 0.01 0.04 0.03 85 1000.0
20200403054034 43 336 24.0 30.0 0.01 0.04 0.03 84 999.9
20200403053524 43 333 24.0 32.0 0.01 0.04 0.03 84 999.9
20200403053028 43 331 25.0 31.0 0.02 0.04 0.03 85 999.9
20200403052100 43 338 24.0 31.0 0.02 0.04 0.03 85 1000.0
20200403051632 43 338 25.0 30.0 0.02 0.04 0.03 84 1000.1
20200403051048 43 328 25.0 29.0 0.02 0.04 0.03 85 1000.1
20200403050550 43 338 24.0 30.0 0.03 0.04 0.03 85 1000.1
20200403050048 43 328 25.0 30.0 0.03 0.04 0.03 85 1000.1
20200403045544 43 344 25.0 32.0 0.04 0.04 0.03 85 1000.2
20200403045100 43 341 26.0 32.0 0.04 0.04 0.03 85 1000.2
20200403044641 43 338 25.0 31.0 0.03 0.03 0.02 85 1000.3
20200403044042 43 338 26.0 33.0 0.03 0.03 0.02 86 1000.2
20200403043552 43 323 26.0 33.0 0.03 0.03 0.02 85 1000.3
20200403043225 43 328 25.0 32.0 0.03 0.03 0.02 86 1000.4
20200403042039 43 334 27.0 32.0 0.02 0.02 0.01 85 1000.5
20200403041538 43 331 26.0 35.0 0.02 0.02 0.01 86 1000.4
20200403041031 43 327 27.0 34.0 0.02 0.02 0.01 85 1000.6
20200403040528 43 341 27.0 33.0 0.02 0.02 0.01 85 1000.7
20200403040122 43 337 25.0 32.0 0.01 0.01 0.01 85 1000.7
20200403035523 43 333 25.0 37.0 0.00 0.00 0.00 85 1000.6
20200403035035 43 332 25.0 37.0 0.00 0.00 0.00 84 1000.8
20200403034529 43 336 27.0 35.0 0.00 0.00 0.00 84 1000.8
20200403034024 43 327 30.0 35.0 0.00 0.00 0.00 84 1000.6
20200403033522 43 343 27.0 36.0 0.00 0.00 0.00 84 1000.7
20200403033047 43 338 29.0 36.0 0.00 0.00 0.00 83 1000.5
20200403032038 43 330 31.0 36.0 0.00 0.00 0.00 83 1000.7
20200403031546 43 340 26.0 35.0 0.00 0.00 0.00 83 1000.7
20200403031036 44 336 29.0 35.0 0.00 0.00 0.00 82 1000.7
20200403030542 44 346 28.0 35.0 0.00 0.00 0.00 82 1000.8
20200403025538 44 339 32.0 41.0 0.00 0.00 0.00 81 1000.8
20200403025035 44 337 28.0 38.0 0.00 0.00 0.00 82 1000.8
20200403024539 44 341 30.0 38.0 0.00 0.00 0.00 81 1000.9
20200403024039 44 336 28.0 35.0 0.00 0.00 0.00 81 1001.0
20200403023534 44 344 27.0 42.0 0.00 0.00 0.00 81 1001.1
20200403023117 44 329 30.0 42.0 0.00 0.00 0.00 80 1001.1
20200403022039 44 335 33.0 42.0 0.00 0.00 0.00 79 1001.3
20200403021538 44 348 32.0 39.0 0.00 0.00 0.00 79 1001.4
20200403021010 44 340 28.0 40.0 0.00 0.00 0.00 80 1001.4
20200403020507 45 338 30.0 40.0 0.00 0.00 0.00 79 1001.5
20200403020022 45 339 29.0 38.0 0.00 0.00 0.00 79 1001.6
20200403015506 45 333 32.0 38.0 0.00 0.00 0.00 79 1001.6
20200403015010 45 349 30.0 38.0 0.00 0.00 0.00 79 1001.6
20200403014507 45 342 27.0 36.0 0.00 0.00 0.00 80 1001.7
20200403014019 45 341 26.0 33.0 0.00 0.00 0.00 80 1001.9
20200403013505 45 338 26.0 34.0 0.00 0.00 0.00 80 1001.9
20200403013006 45 343 24.0 34.0 0.00 0.00 0.00 80 1001.9
20200403012018 45 335 24.0 33.0 0.00 0.00 0.00 80 1001.9
20200403011540 45 339 22.0 31.0 0.00 0.00 0.00 80 1002.1
20200403011017 46 347 23.0 33.0 0.00 0.00 0.00 80 1002.2
20200403010517 46 348 26.0 33.0 0.00 0.00 0.00 79 1002.1
20200403010034 46 348 23.0 32.0 0.00 0.00 0.00 79 1002.3
20200403005517 46 346 20.0 32.0 0.00 0.00 0.00 79 1002.2
20200403005017 46 355 21.0 32.0 0.00 0.00 0.00 78 1002.2
20200403004531 46 355 23.0 32.0 0.00 0.00 0.00 78 1002.1
20200403004020 46 350 26.0 35.0 0.00 0.00 0.00 77 1002.0
20200403003518 46 342 26.0 35.0 0.00 0.00 0.00 76 1002.0
20200403003132 47 349 24.0 31.0 0.00 0.00 0.00 76 1001.9
20200403002030 47 17 25.0 33.0 0.00 0.00 0.00 75 1001.7
20200403001610 47 340 26.0 33.0 0.00 0.00 0.00 74 1001.8
20200403001025 47 355 24.0 35.0 0.00 0.00 0.00 74 1001.7
20200403000534 48 347 28.0 35.0 0.00 0.00 0.00 73 1001.5
20200403000124 48 360 22.0 34.0 0.00 0.00 0.00 74 1001.5
20200402235524 48 360 26.0 39.0 0.00 0.00 0.00 73 1001.5
20200402235024 48 348 31.0 43.0 0.00 0.00 0.00 71 1001.3
20200402234610 48 344 30.0 40.0 0.00 0.00 0.00 71 1001.2
20200402234041 49 346 27.0 35.0 0.00 0.00 0.00 70 1001.2
20200402233526 49 355 25.0 34.0 0.00 0.00 0.00 69 1001.0
20200402233046 49 5 25.0 34.0 0.00 0.00 0.00 69 1000.8
20200402232018 49 350 21.0 29.0 0.00 0.00 0.00 70 1000.7
20200402231531 49 344 20.0 28.0 0.00 0.00 0.00 69 1000.6
20200402231018 49 5 19.0 28.0 0.00 0.00 0.00 67 1000.7
20200402230518 49 355 20.0 28.0 0.00 0.00 0.00 69 1000.7
20200402230021 50 351 21.0 28.0 0.00 0.00 0.00 67 1000.6
20200402225517 49 345 19.0 27.0 0.00 0.00 0.00 67 1000.5
20200402225017 49 355 18.0 27.0 0.00 0.00 0.00 69 1000.5
20200402224523 49 350 20.0 34.0 0.00 0.00 0.00 68 1000.6
20200402224022 50 351 17.0 39.0 0.00 0.00 0.00 68 1000.5
20200402223515 50 337 32.0 39.0 0.00 0.00 0.00 64 1000.4
20200402223034 50 342 25.0 30.0 0.00 0.00 0.00 65 1000.4
20200402222003 50 340 21.0 30.0 0.00 0.00 0.00 68 1000.3
20200402221503 50 345 24.0 33.0 0.00 0.00 0.00 67 1000.3
20200402221005 50 343 25.0 33.0 0.00 0.00 0.00 66 1000.4
20200402220507 50 348 25.0 31.0 0.00 0.00 0.00 67 1000.3
20200402220005 50 351 24.0 33.0 0.00 0.00 0.00 67 1000.2
20200402215506 50 346 26.0 33.0 0.00 0.00 0.00 67 1000.2
20200402215004 50 341 25.0 30.0 0.00 0.00 0.00 67 1000.2
20200402214502 49 342 20.0 27.0 0.00 0.00 0.00 70 1000.2
20200402214002 49 347 18.0 22.0 0.00 0.00 0.00 71 1000.1
20200402213505 49 342 17.0 21.0 0.00 0.00 0.00 72 1000.1
20200402213003 49 347 18.0 25.0 0.00 0.00 0.00 71 1000.1
20200402212018 50 346 22.0 25.0 0.00 0.00 0.00 67 1000.0
20200402211522 50 341 20.0 31.0 0.00 0.00 0.00 68 1000.0
20200402211027 50 350 25.0 31.0 0.00 0.00 0.00 66 999.8
20200402210518 50 338 25.0 30.0 0.00 0.00 0.00 68 999.7
20200402210052 50 340 23.0 30.0 0.00 0.00 0.00 68 999.9
20200402205517 49 325 21.0 25.0 0.00 0.00 0.00 70 999.8
20200402205041 49 337 21.0 26.0 0.00 0.00 0.00 69 999.7
20200402204545 49 336 20.0 27.0 0.00 0.00 0.00 69 999.7
20200402204036 50 335 22.0 30.0 0.00 0.00 0.00 69 999.7
20200402203517 50 344 23.0 32.0 0.00 0.00 0.00 66 999.7
20200402203039 50 340 26.0 33.0 0.00 0.00 0.00 67 999.7
20200402201625 49 331 23.0 27.0 0.00 0.00 0.00 69 999.8
20200402201053 49 327 21.0 25.0 0.00 0.00 0.00 68 999.7
20200402200553 49 336 19.0 26.0 0.00 0.00 0.00 70 999.8
20200402200357 49 324 21.0 27.0 0.00 0.00 0.00 69 999.7
20200402195552 49 327 20.0 28.0 0.00 0.00 0.00 69 999.8
20200402195053 49 323 23.0 30.0 0.00 0.00 0.00 67 999.8
20200402194612 49 331 24.0 29.0 0.00 0.00 0.00 68 999.8
20200402194052 49 327 24.0 28.0 0.00 0.00 0.00 69 999.9
20200402193554 49 323 19.0 28.0 0.00 0.00 0.00 71 1000.0
20200402193136 49 333 22.0 29.0 0.00 0.00 0.00 68 1000.0
20200402192103 49 324 22.0 28.0 0.00 0.00 0.00 69 1000.0
20200402191845 49 319 22.0 29.0 0.00 0.00 0.00 70 1000.0
20200402191052 49 331 24.0 31.0 0.00 0.00 0.00 69 999.9
20200402190552 49 328 23.0 28.0 0.00 0.00 0.00 70 1000.0
20200402190122 49 330 19.0 25.0 0.00 0.00 0.00 71 1000.0
20200402185551 49 323 20.0 29.0 0.00 0.00 0.00 69 1000.0
20200402185107 50 323 24.0 30.0 0.00 0.00 0.00 67 1000.1
20200402184802 50 324 22.0 27.0 0.00 0.00 0.00 69 999.9
20200402184051 50 329 20.0 27.0 0.00 0.00 0.00 69 1000.1
20200402183556 50 327 20.0 27.0 0.00 0.00 0.00 69 1000.1
20200402183102 50 310 22.0 27.0 0.00 0.00 0.00 67 1000.2
20200402182047 49 328 19.0 28.0 0.00 0.00 0.00 69 1000.2
20200402181625 49 322 24.0 28.0 0.00 0.00 0.00 69 1000.3
20200402181046 49 338 20.0 24.0 0.00 0.00 0.00 69 1000.4
20200402180549 49 330 20.0 24.0 0.00 0.00 0.00 70 1000.5
20200402180049 49 321 19.0 22.0 0.00 0.00 0.00 70 1000.6
20200402175546 49 331 17.0 24.0 0.00 0.00 0.00 71 1000.7
20200402175119 49 328 20.0 27.0 0.00 0.00 0.00 69 1000.6
20200402174603 49 326 21.0 27.0 0.00 0.00 0.00 69 1000.4
20200402174050 49 332 21.0 27.0 0.00 0.00 0.00 69 1000.6
20200402173542 49 340 21.0 25.0 0.00 0.00 0.00 70 1000.8
20200402173208 49 325 18.0 22.0 0.00 0.00 0.00 71 1000.8
20200402172043 49 317 19.0 22.0 0.00 0.00 0.00 72 1001.1
20200402171619 48 329 17.0 21.0 0.00 0.00 0.00 72 1001.2
20200402171049 48 330 17.0 21.0 0.00 0.00 0.00 73 1001.2
20200402170544 48 315 15.0 19.0 0.00 0.00 0.00 74 1001.3
20200402170116 48 317 15.0 21.0 0.00 0.00 0.00 74 1001.3
20200402165538 48 331 16.0 22.0 0.00 0.00 0.00 74 1001.4
20200402165040 48 318 17.0 23.0 0.00 0.00 0.00 72 1001.4
20200402164614 48 326 19.0 23.0 0.00 0.00 0.00 72 1001.5
20200402164034 48 320 17.0 21.0 0.00 0.00 0.00 72 1001.4
20200402163533 47 324 14.0 17.0 0.00 0.00 0.00 75 1001.6
20200402163047 47 328 15.0 19.0 0.00 0.00 0.00 74 1001.6
20200402162037 47 332 16.0 22.0 0.00 0.00 0.00 73 1001.6
20200402161538 47 326 19.0 22.0 0.00 0.00 0.00 72 1001.8
20200402161041 47 332 18.0 26.0 0.00 0.00 0.00 73 1002.0
20200402160531 47 331 19.0 26.0 0.00 0.00 0.00 73 1002.0
20200402160140 47 327 19.0 23.0 0.00 0.00 0.00 73 1002.0
20200402155524 47 333 18.0 22.0 0.00 0.00 0.00 73 1002.0
20200402155026 47 322 17.0 23.0 0.00 0.00 0.00 74 1002.0
20200402154534 46 320 18.0 25.0 0.00 0.00 0.00 74 1002.0
20200402154021 46 336 20.0 25.0 0.00 0.00 0.00 72 1002.2
20200402153520 46 330 17.0 20.0 0.00 0.00 0.00 73 1002.3
20200402153029 46 327 18.0 20.0 0.00 0.00 0.00 74 1002.3
20200402152022 46 344 17.0 22.0 0.00 0.00 0.00 75 1002.5
20200402151524 46 330 18.0 22.0 0.00 0.00 0.00 73 1002.5
20200402151019 45 336 18.0 23.0 0.00 0.00 0.00 74 1002.6
20200402150518 45 341 18.0 23.0 0.00 0.00 0.00 74 1002.7
20200402150056 45 350 19.0 27.0 0.00 0.00 0.00 73 1002.8
20200402145519 45 329 22.0 27.0 0.00 0.00 0.00 72 1002.9
20200402145017 45 327 21.0 28.0 0.00 0.00 0.00 74 1002.9
20200402144536 45 346 22.0 27.0 0.00 0.00 0.00 73 1002.9
20200402144014 45 329 20.0 26.0 0.00 0.00 0.00 74 1003.0
20200402143513 45 329 22.0 25.0 0.00 0.00 0.00 73 1003.1
20200402143013 44 346 20.0 25.0 0.00 0.00 0.00 73 1003.0
20200402142018 44 349 25.0 31.0 0.00 0.00 0.00 73 1003.3
20200402141628 44 337 20.0 27.0 0.00 0.00 0.00 75 1003.5
20200402141028 43 344 21.0 27.0 0.00 0.00 0.00 73 1003.6
20200402140516 43 331 22.0 26.0 0.00 0.00 0.00 73 1003.8
20200402140021 43 338 20.0 26.0 0.00 0.00 0.00 74 1003.8
20200402135514 43 336 20.0 27.0 0.00 0.00 0.00 73 1004.0
20200402135018 43 338 19.0 25.0 0.00 0.00 0.00 74 1004.0
20200402134519 43 336 19.0 26.0 0.00 0.00 0.00 75 1004.2
20200402134011 43 341 21.0 26.0 0.00 0.00 0.00 73 1004.1
20200402133511 42 328 19.0 24.0 0.00 0.00 0.00 74 1004.2
20200402133015 42 322 19.0 24.0 0.00 0.00 0.00 75 1004.2
20200402132027 42 330 18.0 23.0 0.00 0.00 0.00 75 1004.3
20200402131539 42 338 18.0 23.0 0.00 0.00 0.00 74 1004.3
20200402131049 42 325 17.0 22.0 0.00 0.00 0.00 77 1004.4
20200402130525 41 323 19.0 24.0 0.00 0.00 0.00 75 1004.4
20200402130040 41 327 19.0 24.0 0.00 0.00 0.00 76 1004.5
20200402125517 41 336 19.0 24.0 0.00 0.00 0.00 76 1004.4
20200402125025 41 323 20.0 25.0 0.00 0.00 0.00 75 1004.5
20200402124532 41 315 20.0 25.0 0.00 0.00 0.00 76 1004.5
20200402124031 41 327 20.0 26.0 0.00 0.00 0.00 76 1004.6
20200402123520 41 319 19.0 26.0 0.00 0.00 0.00 77 1004.5
20200402123026 41 327 20.0 24.0 0.00 0.00 0.00 76 1004.6
20200402122008 41 327 20.0 26.0 0.00 0.00 0.00 77 1004.6
20200402121524 41 316 21.0 27.0 0.00 0.00 0.00 77 1004.6
20200402121008 41 327 19.0 26.0 0.00 0.00 0.00 77 1004.7
20200402120508 41 320 21.0 26.0 0.00 0.00 0.00 77 1004.6
20200402120011 41 327 18.0 26.0 0.00 0.00 0.00 78 1004.7
20200402115507 41 307 20.0 26.0 0.00 0.00 0.00 78 1004.7
20200402115007 40 326 20.0 24.0 0.00 0.00 0.00 78 1004.7
20200402114512 40 319 20.0 25.0 0.00 0.00 0.00 78 1004.8
20200402114006 40 319 20.0 26.0 0.00 0.00 0.00 78 1004.7
20200402113516 40 304 20.0 26.0 0.00 0.00 0.00 78 1004.8
20200402113007 40 316 21.0 25.0 0.00 0.00 0.00 78 1004.8
20200402112014 40 322 19.0 24.0 0.00 0.00 0.00 79 1004.9
20200402111538 40 313 19.0 24.0 0.00 0.00 0.00 79 1004.8
20200402111013 40 309 19.0 24.0 0.00 0.00 0.00 79 1004.8
20200402110517 40 323 18.0 25.0 0.00 0.00 0.00 79 1004.8
20200402110023 40 327 19.0 26.0 0.00 0.00 0.00 79 1004.8
20200402105513 40 321 17.0 25.0 0.00 0.00 0.00 80 1004.7
20200402105013 40 320 19.0 26.0 0.00 0.00 0.00 80 1004.6
20200402104518 40 326 19.0 26.0 0.00 0.00 0.00 79 1004.6
20200402104016 40 319 20.0 26.0 0.00 0.00 0.00 79 1004.7
20200402103529 40 318 20.0 25.0 0.00 0.00 0.00 78 1004.6
20200402103024 40 321 20.0 25.0 0.00 0.00 0.00 78 1004.7
20200402102006 40 325 20.0 26.0 0.00 0.00 0.00 78 1004.6
20200402101506 40 310 21.0 26.0 0.00 0.00 0.00 78 1004.5
20200402101012 40 323 20.0 26.0 0.00 0.00 0.00 78 1004.6
20200402100506 40 319 20.0 25.0 0.00 0.00 0.00 78 1004.6
20200402100028 40 314 20.0 25.0 0.00 0.00 0.00 78 1004.6
20200402095508 40 319 19.0 25.0 0.00 0.00 0.00 78 1004.6
20200402095003 40 323 21.0 25.0 0.00 0.00 0.00 78 1004.6
20200402094504 40 328 22.0 28.0 0.00 0.00 0.00 77 1004.5
20200402094010 40 324 23.0 28.0 0.00 0.00 0.00 77 1004.5
20200402093503 40 320 21.0 25.0 0.00 0.00 0.00 77 1004.5
20200402093004 40 325 22.0 25.0 0.00 0.00 0.00 76 1004.5
20200402091058 41 324 21.0 26.0 0.00 0.00 0.00 77 1004.6
20200402090558 41 325 22.0 28.0 0.00 0.00 0.00 77 1004.6
20200402090133 41 329 22.0 28.0 0.00 0.00 0.00 76 1004.5
20200402085604 41 332 21.0 26.0 0.00 0.00 0.00 76 1004.6